createdAt,value
2022-12-18T00:02:26.138Z,7.00
2022-12-18T00:04:52.607Z,8.00
2022-12-18T00:07:19.022Z,6.33
2022-12-18T00:09:45.444Z,7.50
2022-12-18T00:14:57.504Z,6.80
2022-12-18T00:17:24.723Z,7.00
2022-12-18T00:19:51.100Z,6.33
2022-12-18T00:22:18.367Z,6.50
2022-12-18T00:24:45.650Z,8.25
2022-12-18T00:29:57.036Z,7.75
2022-12-18T00:32:24.255Z,7.25
2022-12-18T00:34:52.601Z,8.40
2022-12-18T00:37:20.409Z,7.00
2022-12-18T00:39:47.794Z,7.00
2022-12-18T00:44:58.074Z,6.00
2022-12-18T00:47:24.468Z,7.00
2022-12-18T00:49:50.780Z,6.33
2022-12-18T00:52:18.008Z,7.00
2022-12-18T00:54:44.423Z,5.33
2022-12-18T00:57:11.632Z,6.75
2022-12-18T00:59:38.016Z,8.00
2022-12-18T01:02:04.514Z,7.00
2022-12-18T01:04:30.964Z,7.00
2022-12-18T01:06:57.324Z,8.00
2022-12-18T01:09:25.567Z,6.60
2022-12-18T01:11:51.959Z,4.00
2022-12-18T01:14:19.200Z,7.75
2022-12-18T01:16:45.578Z,6.00
2022-12-18T01:19:12.844Z,6.00
2022-12-18T01:21:39.169Z,7.00
2022-12-18T01:24:06.429Z,7.50
2022-12-18T01:26:33.626Z,7.00
2022-12-18T01:29:02.794Z,7.00
2022-12-18T01:31:29.218Z,6.00
2022-12-18T01:33:55.656Z,6.00
2022-12-18T01:36:22.057Z,7.00
2022-12-18T01:38:48.401Z,6.00
2022-12-18T01:41:17.508Z,5.67
2022-12-18T01:43:43.929Z,7.33
2022-12-18T01:46:11.204Z,6.75
2022-12-18T01:48:38.430Z,7.00
2022-12-18T01:51:05.822Z,6.00
2022-12-18T01:53:32.244Z,7.33
2022-12-18T01:55:58.561Z,5.00
2022-12-18T01:58:25.813Z,6.75
2022-12-18T02:00:52.696Z,8.00
2022-12-18T02:03:19.171Z,6.00
2022-12-18T02:05:48.392Z,7.17
2022-12-18T02:08:15.594Z,6.50
2022-12-18T02:10:42.826Z,6.00
2022-12-18T02:13:09.328Z,5.67
2022-12-18T02:18:29.674Z,6.00
2022-12-18T02:20:56.100Z,6.33
2022-12-18T02:23:22.448Z,6.00
2022-12-18T02:25:48.796Z,7.00
2022-12-18T02:28:15.183Z,7.00
2022-12-18T02:33:25.559Z,4.33
2022-12-18T02:35:51.883Z,6.67
2022-12-18T02:38:18.235Z,7.00
2022-12-18T02:40:45.444Z,7.75
2022-12-18T02:43:12.686Z,6.00
2022-12-18T02:48:23.771Z,6.00
2022-12-18T02:50:50.105Z,5.33
2022-12-18T02:53:16.433Z,6.33
2022-12-18T02:55:42.751Z,6.00
2022-12-18T02:58:09.978Z,6.00
2022-12-18T03:03:30.095Z,6.00
2022-12-18T03:05:56.513Z,6.00
2022-12-18T03:08:22.819Z,5.00
2022-12-18T03:10:49.152Z,5.33
2022-12-18T03:13:15.502Z,2.33
2022-12-18T03:18:25.769Z,6.00
2022-12-18T03:20:52.113Z,4.67
2022-12-18T03:23:18.493Z,5.33
2022-12-18T03:25:44.812Z,5.33
2022-12-18T03:28:11.140Z,5.00
2022-12-18T03:33:31.671Z,5.67
2022-12-18T03:35:57.995Z,6.00
2022-12-18T03:38:24.326Z,5.00
2022-12-18T03:40:50.651Z,6.00
2022-12-18T03:43:16.961Z,6.00
2022-12-18T03:48:37.360Z,6.00
2022-12-18T03:51:03.762Z,6.00
2022-12-18T03:53:30.069Z,5.33
2022-12-18T03:55:56.374Z,5.33
2022-12-18T03:58:22.688Z,4.00
2022-12-18T04:03:32.823Z,5.00
2022-12-18T04:05:59.529Z,6.00
2022-12-18T04:08:25.870Z,5.67
2022-12-18T04:10:52.203Z,5.33
2022-12-18T04:13:18.537Z,4.00
2022-12-18T04:18:29.024Z,5.67
2022-12-18T04:20:55.349Z,5.00
2022-12-18T04:23:22.097Z,6.00
2022-12-18T04:25:48.939Z,5.00
2022-12-18T04:28:15.283Z,5.00
2022-12-18T04:33:35.417Z,5.33
2022-12-18T04:36:01.733Z,4.33
2022-12-18T04:38:28.041Z,3.67
2022-12-18T04:40:54.416Z,6.00
2022-12-18T04:43:20.773Z,5.00
2022-12-18T04:48:30.869Z,5.00
2022-12-18T04:50:57.179Z,4.00
2022-12-18T04:53:23.582Z,5.33
2022-12-18T04:55:49.905Z,0.33
2022-12-18T04:58:16.225Z,5.33
2022-12-18T05:00:42.595Z,4.00
2022-12-18T05:03:08.920Z,4.33
2022-12-18T05:05:35.232Z,5.33
2022-12-18T05:08:01.566Z,5.00
2022-12-18T05:10:29.048Z,4.33
2022-12-18T05:12:57.530Z,3.67
2022-12-18T05:15:23.834Z,6.00
2022-12-18T05:17:50.187Z,4.33
2022-12-18T05:20:16.521Z,4.00
2022-12-18T05:22:42.831Z,5.00
2022-12-18T05:25:10.040Z,4.50
2022-12-18T05:27:36.377Z,4.00
2022-12-18T05:30:02.716Z,3.33
2022-12-18T05:32:29.039Z,2.67
2022-12-18T05:34:55.372Z,5.00
2022-12-18T05:37:21.671Z,6.00
2022-12-18T05:39:47.978Z,4.33
2022-12-18T05:42:15.182Z,4.00
2022-12-18T05:44:41.543Z,4.33
2022-12-18T05:47:07.924Z,4.00
2022-12-18T05:49:34.245Z,5.00
2022-12-18T05:52:00.554Z,5.00
2022-12-18T05:54:26.883Z,6.00
2022-12-18T05:56:53.205Z,5.00
2022-12-18T05:59:20.408Z,6.00
2022-12-18T06:01:46.854Z,6.67
2022-12-18T06:04:14.368Z,5.50
2022-12-18T06:06:40.970Z,5.33
2022-12-18T06:09:07.366Z,6.33
2022-12-18T06:11:34.769Z,8.00
2022-12-18T06:14:02.033Z,11.00
2022-12-18T06:16:28.867Z,12.00
2022-12-18T06:21:42.659Z,12.00
2022-12-18T06:24:09.098Z,12.00
2022-12-18T06:26:35.528Z,11.00
2022-12-18T06:29:02.843Z,12.00
2022-12-18T06:31:30.231Z,12.00
2022-12-18T06:36:53.147Z,15.50
2022-12-18T06:39:20.539Z,13.00
2022-12-18T06:41:46.972Z,12.00
2022-12-18T06:44:13.554Z,14.00
2022-12-18T06:46:42.036Z,10.20
2022-12-18T06:51:52.340Z,13.00
2022-12-18T06:54:18.806Z,13.00
2022-12-18T06:56:45.313Z,14.50
2022-12-18T06:59:11.774Z,15.00
2022-12-18T07:01:38.491Z,12.50
2022-12-18T07:06:49.335Z,13.00
2022-12-18T07:09:15.777Z,13.00
2022-12-18T07:11:43.103Z,13.00
2022-12-18T07:14:09.559Z,13.00
2022-12-18T07:16:36.087Z,9.00
2022-12-18T07:21:59.593Z,11.00
2022-12-18T07:24:26.932Z,10.33
2022-12-18T07:26:56.105Z,8.00
2022-12-18T07:29:22.544Z,12.00
2022-12-18T07:31:49.993Z,12.33
2022-12-18T07:37:00.294Z,17.00
2022-12-18T07:39:26.745Z,15.50
2022-12-18T07:41:54.187Z,16.67
2022-12-18T07:44:21.609Z,18.50
2022-12-18T07:46:49.019Z,18.50
2022-12-18T07:52:11.514Z,19.00
2022-12-18T07:54:37.984Z,22.00
2022-12-18T07:57:09.938Z,21.67
2022-12-18T07:59:47.891Z,20.00
2022-12-18T08:02:15.393Z,22.50
2022-12-18T08:07:36.799Z,21.50
2022-12-18T08:10:03.269Z,21.50
2022-12-18T08:12:30.608Z,19.00
2022-12-18T08:14:58.106Z,33.67
2022-12-18T08:17:24.603Z,29.00
2022-12-18T08:22:37.273Z,25.00
2022-12-18T08:25:04.684Z,25.67
2022-12-18T08:27:31.904Z,23.00
2022-12-18T08:29:59.936Z,24.67
2022-12-18T08:32:27.437Z,22.50
2022-12-18T08:37:38.434Z,23.00
2022-12-18T08:40:04.923Z,20.50
2022-12-18T08:42:31.397Z,22.00
2022-12-18T08:44:57.890Z,20.00
2022-12-18T08:47:24.398Z,21.00
2022-12-18T08:52:44.802Z,20.00
2022-12-18T08:55:12.814Z,18.50
2022-12-18T08:57:39.409Z,20.00
2022-12-18T09:00:05.882Z,19.00
2022-12-18T09:02:32.522Z,19.00
2022-12-18T09:07:43.090Z,19.00
2022-12-18T09:10:09.528Z,17.50
2022-12-18T09:12:36.016Z,18.50
2022-12-18T09:15:03.406Z,15.67
2022-12-18T09:17:29.877Z,16.50
2022-12-18T09:22:50.390Z,16.00
2022-12-18T09:25:18.035Z,17.50
2022-12-18T09:27:44.523Z,15.00
2022-12-18T09:30:11.911Z,16.00
2022-12-18T09:32:39.298Z,15.67
2022-12-18T09:38:00.758Z,14.67
2022-12-18T09:40:27.289Z,15.00
2022-12-18T09:42:54.670Z,14.67
2022-12-18T09:45:22.035Z,15.67
2022-12-18T09:47:49.587Z,15.00
2022-12-18T09:53:01.936Z,12.67
2022-12-18T09:55:33.582Z,12.00
2022-12-18T09:58:03.256Z,14.50
2022-12-18T10:00:30.700Z,14.67
2022-12-18T10:02:58.231Z,14.33
2022-12-18T10:05:25.714Z,16.33
2022-12-18T10:07:53.077Z,14.67
2022-12-18T10:10:19.567Z,13.50
2022-12-18T10:12:46.077Z,15.00
2022-12-18T10:15:12.602Z,16.50
2022-12-18T10:17:40.004Z,14.67
2022-12-18T10:20:07.376Z,13.33
2022-12-18T10:22:34.856Z,14.33
2022-12-18T10:25:02.219Z,15.00
2022-12-18T10:27:28.708Z,7.00
2022-12-18T10:29:55.250Z,16.00
2022-12-18T10:32:21.711Z,16.00
2022-12-18T10:34:48.308Z,12.50
2022-12-18T10:37:14.811Z,15.00
2022-12-18T10:39:42.202Z,14.00
2022-12-18T10:42:08.708Z,15.00
2022-12-18T10:44:35.250Z,13.00
2022-12-18T10:47:01.683Z,12.50
2022-12-18T10:49:29.116Z,15.67
2022-12-18T10:51:55.588Z,13.50
2022-12-18T10:54:22.079Z,15.50
2022-12-18T10:56:50.366Z,9.80
2022-12-18T10:59:16.823Z,14.00
2022-12-18T11:01:44.308Z,16.33
2022-12-18T11:04:11.682Z,14.67
2022-12-18T11:06:38.879Z,12.00
2022-12-18T11:09:13.141Z,14.00
2022-12-18T11:11:41.018Z,14.00
2022-12-18T11:14:07.543Z,13.50
2022-12-18T11:16:34.071Z,14.00
2022-12-18T11:19:00.571Z,14.00
2022-12-18T11:21:27.998Z,15.33
2022-12-18T11:26:39.507Z,17.33
2022-12-18T11:29:06.152Z,16.50
2022-12-18T11:31:33.647Z,13.33
2022-12-18T11:34:27.393Z,15.00
2022-12-18T11:36:50.184Z,9.57
2022-12-18T11:42:00.829Z,10.50
2022-12-18T11:44:28.098Z,11.00
2022-12-18T11:46:55.389Z,9.67
2022-12-18T11:49:23.714Z,9.60
2022-12-18T11:51:53.127Z,7.50
2022-12-18T11:57:10.730Z,9.29
2022-12-18T11:59:39.072Z,9.60
2022-12-18T12:02:07.508Z,10.00
2022-12-18T12:04:34.931Z,11.00
2022-12-18T12:07:03.645Z,10.60
2022-12-18T12:12:24.766Z,10.00
2022-12-18T12:14:51.874Z,7.00
2022-12-18T12:17:21.804Z,9.29
2022-12-18T12:19:50.987Z,8.67
2022-12-18T12:22:19.326Z,10.40
2022-12-18T12:27:42.807Z,11.00
2022-12-18T12:30:10.393Z,12.33
2022-12-18T12:32:40.479Z,9.86
2022-12-18T12:35:09.908Z,13.00
2022-12-18T12:37:36.590Z,14.00
2022-12-18T12:42:47.674Z,17.00
2022-12-18T12:45:14.104Z,13.00
2022-12-18T12:47:41.867Z,10.00
2022-12-18T12:50:08.884Z,14.50
2022-12-18T12:52:36.819Z,16.67
2022-12-18T12:57:47.237Z,15.50
2022-12-18T13:00:13.736Z,14.50
2022-12-18T13:02:40.663Z,15.00
2022-12-18T13:05:07.234Z,15.00
2022-12-18T13:07:34.652Z,16.33
2022-12-18T13:12:54.991Z,17.00
2022-12-18T13:15:22.381Z,14.67
2022-12-18T13:17:48.811Z,12.00
2022-12-18T13:20:17.157Z,14.33
2022-12-18T13:22:44.764Z,13.67
2022-12-18T13:28:05.710Z,16.50
2022-12-18T13:30:33.095Z,16.00
2022-12-18T13:33:00.519Z,16.67
2022-12-18T13:35:27.021Z,18.00
2022-12-18T13:37:53.625Z,16.00
2022-12-18T13:43:05.491Z,14.33
2022-12-18T13:45:33.724Z,16.67
2022-12-18T13:48:01.134Z,16.67
2022-12-18T13:50:35.470Z,17.33
2022-12-18T13:53:03.755Z,17.00
2022-12-18T13:58:15.271Z,12.40
2022-12-18T14:00:42.687Z,16.67
2022-12-18T14:03:09.331Z,17.00
2022-12-18T14:05:36.771Z,14.00
2022-12-18T14:08:05.183Z,16.50
2022-12-18T14:13:16.796Z,16.33
2022-12-18T14:15:45.189Z,17.00
2022-12-18T14:18:12.129Z,14.00
2022-12-18T14:20:39.518Z,15.67
2022-12-18T14:23:05.991Z,15.50
2022-12-18T14:28:27.353Z,12.00
2022-12-18T14:30:54.770Z,15.67
2022-12-18T14:33:22.204Z,13.33
2022-12-18T14:35:49.518Z,11.33
2022-12-18T14:38:15.995Z,12.00
2022-12-18T14:43:37.458Z,11.67
2022-12-18T14:46:05.320Z,11.00
2022-12-18T14:48:32.241Z,11.50
2022-12-18T14:50:58.688Z,10.50
2022-12-18T14:53:25.993Z,11.00
2022-12-18T14:58:48.745Z,14.00
2022-12-18T15:01:16.210Z,12.00
2022-12-18T15:03:43.199Z,10.50
2022-12-18T15:06:11.728Z,9.80
2022-12-18T15:08:39.060Z,10.33
2022-12-18T15:13:51.079Z,9.67
2022-12-18T15:16:17.596Z,9.00
2022-12-18T15:18:44.184Z,10.00
2022-12-18T15:21:12.472Z,9.40
2022-12-18T15:23:41.088Z,9.20
2022-12-18T15:28:54.666Z,8.60
2022-12-18T15:31:21.149Z,6.00
2022-12-18T15:33:47.655Z,7.00
2022-12-18T15:36:15.074Z,7.75
2022-12-18T15:38:41.437Z,4.67
2022-12-18T15:43:56.232Z,9.57
2022-12-18T15:46:22.766Z,9.00
2022-12-18T15:48:49.314Z,12.50
2022-12-18T15:51:15.808Z,15.00
2022-12-18T15:53:43.653Z,16.67
2022-12-18T15:58:55.584Z,12.67
2022-12-18T16:01:24.043Z,12.20
2022-12-18T16:03:50.724Z,17.00
2022-12-18T16:06:17.283Z,17.00
2022-12-18T16:08:44.725Z,14.67
2022-12-18T16:11:11.395Z,13.00
2022-12-18T16:13:38.972Z,12.67
2022-12-18T16:16:05.777Z,12.00
2022-12-18T16:18:33.152Z,11.00
2022-12-18T16:21:00.449Z,12.33
2022-12-18T16:23:27.877Z,12.00
2022-12-18T16:25:54.309Z,5.00
2022-12-18T16:28:21.664Z,12.67
2022-12-18T16:30:48.181Z,11.00
2022-12-18T16:33:15.658Z,11.67
2022-12-18T16:35:42.088Z,12.50
2022-12-18T16:38:09.330Z,12.50
2022-12-18T16:40:36.415Z,11.00
2022-12-18T16:43:02.900Z,11.50
2022-12-18T16:45:29.356Z,12.00
2022-12-18T16:47:57.846Z,12.00
2022-12-18T16:50:25.472Z,10.33
2022-12-18T16:52:52.881Z,12.67
2022-12-18T16:55:20.320Z,12.00
2022-12-18T16:57:47.633Z,11.33
2022-12-18T17:00:15.003Z,15.67
2022-12-18T17:02:42.075Z,13.00
2022-12-18T17:05:08.709Z,14.00
2022-12-18T17:07:35.159Z,14.00
2022-12-18T17:10:03.095Z,15.00
2022-12-18T17:12:30.578Z,11.33
2022-12-18T17:14:57.214Z,12.00
2022-12-18T17:17:24.696Z,13.00
2022-12-18T17:19:52.139Z,12.33
2022-12-18T17:22:18.660Z,13.00
2022-12-18T17:24:45.107Z,15.00
2022-12-18T17:27:11.760Z,12.50
2022-12-18T17:32:26.955Z,12.40
2022-12-18T17:34:54.337Z,15.33
2022-12-18T17:37:20.837Z,13.00
2022-12-18T17:39:48.219Z,14.33
2022-12-18T17:42:15.180Z,14.00
2022-12-18T17:47:38.019Z,11.00
2022-12-18T17:50:05.411Z,16.50
2022-12-18T17:52:32.873Z,20.33
2022-12-18T17:54:59.371Z,18.50
2022-12-18T17:57:26.780Z,17.50
2022-12-18T18:02:48.262Z,17.00
2022-12-18T18:05:15.080Z,17.00
2022-12-18T18:07:43.556Z,16.00
2022-12-18T18:10:10.033Z,16.50
2022-12-18T18:12:37.448Z,14.67
2022-12-18T18:17:49.666Z,13.00
2022-12-18T18:20:22.154Z,13.00
2022-12-18T18:22:49.965Z,13.00
2022-12-18T18:25:17.321Z,11.33
2022-12-18T18:27:44.641Z,12.00
2022-12-18T18:32:58.164Z,13.00
2022-12-18T18:35:52.986Z,8.20
2022-12-18T18:38:13.874Z,11.33
2022-12-18T18:40:41.212Z,11.67
2022-12-18T18:43:08.468Z,12.00
2022-12-18T18:48:29.770Z,10.00
2022-12-18T18:50:58.500Z,12.50
2022-12-18T18:53:24.978Z,12.50
2022-12-18T18:56:17.220Z,13.00
2022-12-18T18:58:37.892Z,12.50
2022-12-18T19:03:58.440Z,13.00
2022-12-18T19:06:26.131Z,13.33
2022-12-18T19:08:53.433Z,15.00
2022-12-18T19:11:20.831Z,14.00
2022-12-18T19:13:48.324Z,14.00
2022-12-18T19:19:01.889Z,11.00
2022-12-18T19:21:29.200Z,15.00
2022-12-18T19:23:57.850Z,11.50
2022-12-18T19:26:27.879Z,15.00
2022-12-18T19:28:55.857Z,14.33
2022-12-18T19:34:18.069Z,13.67
2022-12-18T19:36:44.853Z,14.50
2022-12-18T19:39:11.508Z,15.00
2022-12-18T19:41:38.021Z,13.00
2022-12-18T19:44:07.589Z,14.67
2022-12-18T19:49:21.132Z,14.00
2022-12-18T19:51:47.561Z,15.50
2022-12-18T19:54:17.930Z,15.00
2022-12-18T19:56:44.506Z,15.50
2022-12-18T19:59:10.964Z,13.50
2022-12-18T20:04:32.195Z,14.00
2022-12-18T20:06:59.715Z,13.33
2022-12-18T20:09:27.198Z,14.00
2022-12-18T20:11:53.977Z,14.50
2022-12-18T20:14:23.042Z,15.33
2022-12-18T20:19:35.287Z,14.00
2022-12-18T20:22:02.933Z,15.00
2022-12-18T20:24:30.412Z,14.67
2022-12-18T20:26:57.764Z,13.00
2022-12-18T20:29:25.288Z,13.00
2022-12-18T20:34:36.684Z,14.33
2022-12-18T20:37:03.882Z,14.50
2022-12-18T20:39:31.363Z,13.00
2022-12-18T20:41:57.896Z,14.00
2022-12-18T20:44:25.319Z,13.67
2022-12-18T20:49:37.659Z,12.67
2022-12-18T20:52:06.028Z,15.00
2022-12-18T20:54:32.484Z,13.00
2022-12-18T20:56:59.852Z,12.67
2022-12-18T20:59:26.311Z,13.50
2022-12-18T21:04:37.825Z,13.00
2022-12-18T21:07:04.261Z,6.50
2022-12-18T21:09:37.653Z,11.67
2022-12-18T21:12:06.095Z,10.00
2022-12-18T21:14:34.452Z,11.40
2022-12-18T21:19:46.688Z,12.33
2022-12-18T21:22:15.027Z,9.67
2022-12-18T21:24:41.523Z,9.00
2022-12-18T21:27:08.832Z,9.67
2022-12-18T21:29:37.037Z,9.00
2022-12-18T21:35:00.240Z,12.00
2022-12-18T21:37:29.486Z,8.67
2022-12-18T21:39:56.769Z,10.67
2022-12-18T21:42:25.154Z,9.20
2022-12-18T21:44:53.534Z,11.00
2022-12-18T21:50:06.076Z,9.40
2022-12-18T21:52:32.960Z,10.00
2022-12-18T21:55:03.289Z,10.00
2022-12-18T21:57:36.553Z,9.80
2022-12-18T22:00:05.663Z,9.17
2022-12-18T22:05:29.851Z,9.17
2022-12-18T22:07:59.876Z,10.00
2022-12-18T22:10:26.286Z,7.00
2022-12-18T22:12:55.098Z,10.80
2022-12-18T22:15:22.080Z,8.00
2022-12-18T22:20:35.382Z,9.00
2022-12-18T22:23:02.643Z,5.50
2022-12-18T22:25:32.696Z,9.00
2022-12-18T22:28:03.056Z,10.40
2022-12-18T22:30:29.569Z,10.00
2022-12-18T22:35:53.066Z,9.60
2022-12-18T22:38:19.529Z,9.00
2022-12-18T22:40:45.963Z,9.00
2022-12-18T22:43:14.254Z,9.00
2022-12-18T22:45:40.687Z,8.00
2022-12-18T22:51:01.500Z,10.00
2022-12-18T22:53:27.945Z,8.00
2022-12-18T22:55:57.126Z,9.00
2022-12-18T22:58:25.435Z,7.40
2022-12-18T23:00:54.598Z,9.00
2022-12-18T23:06:08.627Z,8.60
2022-12-18T23:08:36.916Z,11.20
2022-12-18T23:11:06.106Z,8.67
2022-12-18T23:13:32.608Z,9.00
2022-12-18T23:16:00.916Z,11.00
2022-12-18T23:21:13.348Z,9.00
2022-12-18T23:23:40.547Z,7.00
2022-12-18T23:26:06.909Z,5.00
2022-12-18T23:28:36.835Z,9.43
2022-12-18T23:31:06.458Z,8.50
2022-12-18T23:36:22.943Z,8.83
2022-12-18T23:38:49.356Z,9.00
2022-12-18T23:41:15.809Z,9.50
2022-12-18T23:43:42.227Z,9.00
2022-12-18T23:46:13.399Z,9.33
2022-12-18T23:51:35.720Z,7.60
2022-12-18T23:54:05.631Z,8.83
2022-12-18T23:56:32.860Z,7.50
2022-12-18T23:58:59.287Z,8.00
